createdAt,value
2022-07-25T00:00:09.048Z,11.48
2022-07-25T00:02:35.623Z,12.48
2022-07-25T00:05:02.147Z,11.68
2022-07-25T00:07:28.579Z,11.98
2022-07-25T00:09:55.185Z,12.02
2022-07-25T00:12:21.590Z,12.32
2022-07-25T00:14:48.216Z,12.32
2022-07-25T00:17:14.612Z,12.23
2022-07-25T00:19:41.044Z,12.40
2022-07-25T00:22:07.375Z,12.43
2022-07-25T00:24:33.920Z,12.68
2022-07-25T00:27:00.314Z,12.80
2022-07-25T00:29:26.743Z,12.02
2022-07-25T00:31:53.082Z,12.30
2022-07-25T00:34:19.465Z,12.32
2022-07-25T00:36:45.913Z,12.48
2022-07-25T00:39:12.456Z,12.98
2022-07-25T00:41:38.894Z,11.80
2022-07-25T00:44:05.775Z,12.73
2022-07-25T00:46:32.629Z,12.02
2022-07-25T00:48:59.155Z,13.30
2022-07-25T00:51:25.773Z,13.07
2022-07-25T00:53:52.161Z,12.80
2022-07-25T00:56:18.613Z,12.68
2022-07-25T00:58:45.589Z,12.57
2022-07-25T01:01:12.004Z,12.32
2022-07-25T01:03:38.425Z,13.38
2022-07-25T01:06:04.892Z,12.85
2022-07-25T01:08:32.096Z,13.38
2022-07-25T01:10:58.540Z,12.15
2022-07-25T01:13:24.905Z,12.32
2022-07-25T01:15:51.294Z,13.48
2022-07-25T01:18:17.698Z,13.57
2022-07-25T01:20:44.158Z,12.80
2022-07-25T01:23:10.520Z,13.52
2022-07-25T01:25:36.927Z,13.77
2022-07-25T01:28:03.314Z,13.82
2022-07-25T01:30:29.671Z,13.60
2022-07-25T01:32:56.066Z,13.85
2022-07-25T01:35:22.435Z,14.35
2022-07-25T01:37:48.995Z,14.77
2022-07-25T01:40:15.316Z,14.18
2022-07-25T01:42:42.377Z,13.15
2022-07-25T01:45:09.182Z,13.73
2022-07-25T01:47:35.598Z,13.65
2022-07-25T01:50:02.051Z,14.02
2022-07-25T01:52:28.437Z,13.88
2022-07-25T01:54:54.845Z,15.05
2022-07-25T01:57:21.229Z,14.90
2022-07-25T01:59:49.269Z,14.40
2022-07-25T02:02:15.644Z,13.82
2022-07-25T02:04:42.049Z,14.60
2022-07-25T02:07:08.427Z,14.90
2022-07-25T02:09:34.813Z,14.10
2022-07-25T02:12:01.232Z,13.43
2022-07-25T02:14:27.625Z,15.32
2022-07-25T02:16:54.070Z,15.02
2022-07-25T02:19:20.497Z,14.73
2022-07-25T02:21:46.867Z,15.02
2022-07-25T02:24:13.226Z,15.02
2022-07-25T02:26:39.588Z,14.63
2022-07-25T02:29:05.996Z,14.63
2022-07-25T02:31:32.373Z,14.93
2022-07-25T02:33:58.744Z,15.10
2022-07-25T02:36:25.141Z,14.65
2022-07-25T02:38:51.512Z,15.60
2022-07-25T02:41:17.917Z,15.43
2022-07-25T02:43:44.305Z,14.98
2022-07-25T02:46:10.693Z,14.75
2022-07-25T02:48:37.117Z,15.70
2022-07-25T02:51:03.595Z,15.35
2022-07-25T02:53:54.929Z,16.02
2022-07-25T02:56:16.360Z,15.60
2022-07-25T02:58:42.944Z,15.25
2022-07-25T03:01:09.376Z,15.38
2022-07-25T03:03:36.016Z,15.40
2022-07-25T03:06:02.420Z,14.98
2022-07-25T03:08:28.905Z,15.43
2022-07-25T03:10:55.393Z,15.82
2022-07-25T03:13:21.776Z,15.80
2022-07-25T03:15:48.673Z,16.10
2022-07-25T03:18:15.004Z,15.18
2022-07-25T03:20:41.378Z,15.57
2022-07-25T03:23:07.738Z,16.23
2022-07-25T03:25:34.084Z,15.80
2022-07-25T03:28:00.773Z,15.27
2022-07-25T03:30:27.109Z,15.13
2022-07-25T03:32:54.960Z,15.48
2022-07-25T03:35:21.348Z,15.00
2022-07-25T03:37:47.718Z,16.27
2022-07-25T03:40:15.362Z,16.23
2022-07-25T03:42:42.428Z,15.23
2022-07-25T03:45:09.146Z,15.13
2022-07-25T03:47:35.533Z,15.25
2022-07-25T03:50:01.923Z,16.63
2022-07-25T03:52:28.274Z,16.23
2022-07-25T03:54:54.611Z,17.58
2022-07-25T03:57:20.950Z,16.88
2022-07-25T03:59:47.324Z,16.73
2022-07-25T04:02:13.757Z,16.48
2022-07-25T04:04:40.162Z,16.35
2022-07-25T04:07:06.498Z,15.82
2022-07-25T04:09:33.570Z,16.40
2022-07-25T04:12:00.262Z,15.88
2022-07-25T04:14:26.641Z,16.27
2022-07-25T04:16:53.017Z,15.30
2022-07-25T04:19:19.744Z,14.85
2022-07-25T04:21:46.145Z,15.93
2022-07-25T04:24:12.501Z,16.90
2022-07-25T04:26:38.844Z,15.70
2022-07-25T04:29:05.185Z,15.95
2022-07-25T04:31:31.778Z,14.93
2022-07-25T04:33:58.502Z,15.30
2022-07-25T04:36:24.982Z,15.85
2022-07-25T04:38:51.472Z,14.90
2022-07-25T04:41:17.901Z,15.70
2022-07-25T04:43:48.546Z,15.20
2022-07-25T04:46:22.364Z,16.42
2022-07-25T04:48:49.211Z,15.73
2022-07-25T04:51:16.115Z,15.38
2022-07-25T04:53:42.482Z,14.52
2022-07-25T04:56:08.857Z,14.93
2022-07-25T04:58:35.312Z,14.80
2022-07-25T05:01:01.786Z,15.23
2022-07-25T05:03:28.224Z,14.35
2022-07-25T05:05:54.559Z,14.75
2022-07-25T05:08:20.926Z,13.75
2022-07-25T05:10:47.285Z,15.05
2022-07-25T05:13:13.627Z,12.88
2022-07-25T05:15:42.600Z,13.45
2022-07-25T05:18:09.035Z,13.35
2022-07-25T05:20:35.401Z,15.00
2022-07-25T05:23:01.767Z,13.77
2022-07-25T05:25:29.163Z,12.98
2022-07-25T05:27:57.433Z,13.60
2022-07-25T05:30:23.981Z,14.25
2022-07-25T05:32:50.331Z,14.07
2022-07-25T05:35:16.731Z,12.20
2022-07-25T05:37:43.081Z,13.25
2022-07-25T05:40:09.536Z,12.07
2022-07-25T05:42:36.087Z,11.98
2022-07-25T05:45:02.505Z,11.07
2022-07-25T05:47:28.852Z,11.45
2022-07-25T05:49:55.260Z,12.10
2022-07-25T05:52:21.715Z,12.30
2022-07-25T05:54:48.043Z,11.68
2022-07-25T05:57:14.416Z,11.63
2022-07-25T05:59:40.784Z,11.85
2022-07-25T06:02:07.635Z,11.00
2022-07-25T06:04:34.066Z,11.52
2022-07-25T06:07:00.405Z,11.98
2022-07-25T06:09:26.861Z,11.98
2022-07-25T06:12:00.590Z,10.75
2022-07-25T06:14:27.383Z,12.07
2022-07-25T06:16:54.900Z,11.43
2022-07-25T06:19:21.442Z,11.40
2022-07-25T06:21:47.900Z,11.35
2022-07-25T06:24:14.268Z,10.85
2022-07-25T06:26:40.665Z,10.90
2022-07-25T06:29:07.049Z,10.48
2022-07-25T06:31:33.548Z,9.40
2022-07-25T06:33:59.975Z,11.10
2022-07-25T06:36:32.382Z,10.65
2022-07-25T06:38:59.685Z,10.63
2022-07-25T06:41:26.064Z,10.35
2022-07-25T06:43:52.444Z,10.70
2022-07-25T06:46:18.884Z,10.75
2022-07-25T06:48:45.335Z,10.75
2022-07-25T06:51:11.754Z,9.00
2022-07-25T06:53:38.113Z,9.13
2022-07-25T06:56:04.624Z,10.15
2022-07-25T06:58:30.990Z,10.38
2022-07-25T07:00:57.595Z,10.15
2022-07-25T07:03:24.095Z,11.57
2022-07-25T07:05:50.556Z,9.68
2022-07-25T07:08:17.014Z,9.60
2022-07-25T07:10:43.688Z,10.30
2022-07-25T07:13:11.585Z,8.73
2022-07-25T07:15:39.455Z,8.93
2022-07-25T07:18:06.585Z,9.25
2022-07-25T07:20:33.228Z,10.48
2022-07-25T07:22:59.600Z,8.70
2022-07-25T07:25:28.339Z,10.20
2022-07-25T07:27:54.997Z,10.57
2022-07-25T07:30:25.412Z,10.30
2022-07-25T07:32:53.625Z,9.73
2022-07-25T07:35:20.137Z,10.00
2022-07-25T07:37:46.595Z,9.90
2022-07-25T07:40:17.173Z,10.00
2022-07-25T07:42:45.895Z,8.70
2022-07-25T07:45:15.305Z,9.77
2022-07-25T07:47:41.667Z,9.07
2022-07-25T07:50:09.028Z,8.52
2022-07-25T07:52:35.716Z,9.13
2022-07-25T07:55:20.604Z,8.32
2022-07-25T07:57:49.583Z,9.43
2022-07-25T08:00:16.835Z,8.50
2022-07-25T08:02:44.424Z,8.77
2022-07-25T08:05:10.899Z,8.48
2022-07-25T08:07:37.355Z,8.38
2022-07-25T08:10:04.397Z,9.50
2022-07-25T08:12:30.825Z,8.65
2022-07-25T08:14:57.169Z,8.43
2022-07-25T08:17:28.336Z,9.13
2022-07-25T08:19:55.105Z,9.23
2022-07-25T08:22:21.472Z,8.38
2022-07-25T08:24:47.808Z,8.90
2022-07-25T08:27:14.135Z,8.68
2022-07-25T08:29:40.889Z,8.73
2022-07-25T08:32:07.226Z,8.00
2022-07-25T08:34:34.040Z,8.45
2022-07-25T08:37:01.861Z,7.90
2022-07-25T08:39:28.207Z,9.25
2022-07-25T08:41:54.659Z,8.00
2022-07-25T08:44:21.398Z,7.85
2022-07-25T08:46:47.981Z,9.60
2022-07-25T08:49:14.560Z,8.20
2022-07-25T08:51:41.027Z,8.60
2022-07-25T08:54:07.792Z,9.55
2022-07-25T08:56:34.745Z,9.07
2022-07-25T08:59:01.081Z,7.82
2022-07-25T09:01:31.478Z,8.32
2022-07-25T09:04:01.203Z,8.88
2022-07-25T09:06:27.588Z,8.60
2022-07-25T09:08:58.065Z,7.47
2022-07-25T09:11:32.509Z,7.60
2022-07-25T09:14:04.937Z,8.02
2022-07-25T09:16:32.976Z,8.23
2022-07-25T09:19:12.625Z,6.90
2022-07-25T09:21:42.341Z,7.10
2022-07-25T09:24:12.993Z,6.95
2022-07-25T09:26:45.184Z,7.75
2022-07-25T09:29:37.831Z,6.72
2022-07-25T09:32:14.515Z,6.75
2022-07-25T09:34:42.207Z,6.57
2022-07-25T09:37:09.457Z,6.03
2022-07-25T09:39:45.522Z,6.55
2022-07-25T09:42:32.025Z,6.40
2022-07-25T09:45:03.720Z,5.72
2022-07-25T09:47:33.324Z,6.80
2022-07-25T09:49:59.752Z,6.78
2022-07-25T09:52:26.129Z,6.28
2022-07-25T09:54:52.572Z,6.60
2022-07-25T09:57:19.059Z,6.10
2022-07-25T09:59:45.554Z,5.57
2022-07-25T10:02:15.803Z,6.40
2022-07-25T10:04:45.353Z,6.38
2022-07-25T10:07:14.717Z,5.88
2022-07-25T10:09:41.917Z,6.47
2022-07-25T10:12:09.213Z,6.40
2022-07-25T10:14:36.002Z,6.30
2022-07-25T10:17:02.628Z,5.60
2022-07-25T10:19:52.014Z,6.03
2022-07-25T10:22:39.755Z,5.82
2022-07-25T10:25:14.497Z,6.03
2022-07-25T10:27:48.541Z,5.78
2022-07-25T10:30:25.109Z,5.22
2022-07-25T10:33:01.764Z,5.50
2022-07-25T10:35:28.219Z,5.55
2022-07-25T10:37:55.700Z,6.70
2022-07-25T10:40:48.370Z,4.95
2022-07-25T10:43:18.566Z,6.10
2022-07-25T10:45:45.000Z,5.70
2022-07-25T10:48:13.041Z,5.65
2022-07-25T10:50:57.088Z,5.38
2022-07-25T10:53:33.915Z,5.13
2022-07-25T10:56:22.083Z,5.07
2022-07-25T10:58:55.670Z,4.85
2022-07-25T11:01:23.505Z,4.45
2022-07-25T11:03:50.652Z,4.75
2022-07-25T11:06:17.285Z,4.82
2022-07-25T11:08:44.435Z,4.45
2022-07-25T11:11:11.070Z,4.10
2022-07-25T11:13:41.252Z,4.30
2022-07-25T11:16:08.826Z,4.32
2022-07-25T11:18:36.587Z,3.83
2022-07-25T11:21:06.432Z,4.60
2022-07-25T11:23:33.814Z,4.53
2022-07-25T11:26:07.170Z,3.70
2022-07-25T11:28:44.217Z,4.10
2022-07-25T11:31:11.065Z,4.00
2022-07-25T11:33:38.815Z,3.58
2022-07-25T11:36:05.746Z,4.00
2022-07-25T11:38:33.110Z,4.32
2022-07-25T11:40:59.972Z,4.03
2022-07-25T11:43:26.608Z,3.63
2022-07-25T11:45:56.891Z,4.00
2022-07-25T11:48:30.200Z,3.75
2022-07-25T11:50:56.741Z,3.72
2022-07-25T11:53:23.075Z,4.00
2022-07-25T11:55:49.451Z,4.13
2022-07-25T11:58:17.457Z,3.55
2022-07-25T12:00:48.172Z,3.70
2022-07-25T12:03:19.823Z,4.10
2022-07-25T12:05:46.988Z,3.53
2022-07-25T12:08:14.620Z,3.80
2022-07-25T12:10:41.051Z,4.05
2022-07-25T12:13:09.330Z,3.47
2022-07-25T12:15:40.150Z,3.83
2022-07-25T12:18:09.273Z,4.18
2022-07-25T12:20:38.535Z,3.90
2022-07-25T12:23:06.480Z,4.47
2022-07-25T12:25:33.498Z,3.97
2022-07-25T12:28:00.377Z,4.18
2022-07-25T12:30:27.662Z,3.88
2022-07-25T12:32:54.305Z,4.70
2022-07-25T12:35:20.784Z,4.07
2022-07-25T12:37:47.196Z,3.90
2022-07-25T12:40:14.123Z,4.47
2022-07-25T12:42:40.529Z,4.45
2022-07-25T12:45:08.318Z,4.65
2022-07-25T12:47:34.793Z,4.68
2022-07-25T12:50:01.469Z,4.25
2022-07-25T12:52:28.032Z,4.85
2022-07-25T12:54:54.395Z,4.72
2022-07-25T12:57:20.859Z,4.85
2022-07-25T12:59:47.205Z,4.35
2022-07-25T13:02:13.594Z,3.60
2022-07-25T13:04:39.995Z,4.35
2022-07-25T13:07:06.511Z,4.13
2022-07-25T13:09:33.388Z,3.88
2022-07-25T13:11:59.858Z,4.40
2022-07-25T13:14:26.287Z,4.20
2022-07-25T13:16:52.761Z,4.60
2022-07-25T13:19:19.346Z,4.57
2022-07-25T13:21:45.817Z,4.32
2022-07-25T13:24:12.285Z,4.78
2022-07-25T13:26:39.327Z,4.40
2022-07-25T13:29:11.589Z,4.30
2022-07-25T13:31:39.546Z,4.70
2022-07-25T13:34:06.722Z,4.20
2022-07-25T13:36:39.415Z,4.43
2022-07-25T13:39:06.259Z,4.97
2022-07-25T13:41:32.893Z,4.55
2022-07-25T13:43:59.549Z,4.55
2022-07-25T13:46:25.928Z,4.43
2022-07-25T13:48:52.380Z,4.30
2022-07-25T13:51:18.835Z,4.32
2022-07-25T13:53:45.224Z,4.38
2022-07-25T13:56:13.172Z,4.30
2022-07-25T13:58:40.456Z,3.92
2022-07-25T14:01:07.766Z,4.38
2022-07-25T14:03:34.402Z,4.93
2022-07-25T14:06:00.756Z,4.05
2022-07-25T14:08:27.131Z,4.05
2022-07-25T14:10:53.549Z,4.10
2022-07-25T14:13:20.069Z,4.05
2022-07-25T14:15:46.452Z,4.20
2022-07-25T14:18:12.984Z,4.00
2022-07-25T14:20:39.357Z,4.07
2022-07-25T14:23:05.717Z,3.45
2022-07-25T14:25:32.116Z,3.97
2022-07-25T14:27:59.496Z,3.65
2022-07-25T14:30:25.852Z,3.85
2022-07-25T14:32:52.239Z,3.92
2022-07-25T14:35:20.617Z,4.28
2022-07-25T14:37:47.376Z,3.72
2022-07-25T14:40:14.367Z,3.80
2022-07-25T14:42:41.860Z,3.50
2022-07-25T14:45:08.479Z,3.50
2022-07-25T14:47:34.968Z,3.75
2022-07-25T14:50:01.434Z,3.67
2022-07-25T14:52:27.803Z,3.22
2022-07-25T14:54:54.176Z,3.78
2022-07-25T14:57:20.550Z,4.03
2022-07-25T14:59:46.894Z,3.28
2022-07-25T15:02:13.271Z,3.22
2022-07-25T15:04:39.691Z,3.55
2022-07-25T15:07:06.452Z,3.55
2022-07-25T15:09:32.872Z,3.13
2022-07-25T15:11:59.233Z,3.40
2022-07-25T15:14:25.588Z,3.05
2022-07-25T15:16:52.071Z,3.72
2022-07-25T15:19:18.707Z,3.00
2022-07-25T15:21:46.149Z,2.95
2022-07-25T15:24:12.829Z,3.20
2022-07-25T15:26:39.375Z,2.70
2022-07-25T15:29:06.663Z,2.78
2022-07-25T15:31:33.378Z,2.97
2022-07-25T15:33:59.844Z,3.33
2022-07-25T15:36:29.563Z,3.30
2022-07-25T15:38:56.189Z,3.17
2022-07-25T15:41:22.591Z,3.03
2022-07-25T15:43:48.974Z,3.40
2022-07-25T15:46:16.190Z,3.30
2022-07-25T15:48:43.298Z,3.20
2022-07-25T15:51:09.676Z,3.67
2022-07-25T15:53:36.033Z,3.38
2022-07-25T15:56:02.484Z,3.05
2022-07-25T15:58:28.818Z,3.67
2022-07-25T16:00:55.285Z,3.40
2022-07-25T16:03:21.825Z,3.25
2022-07-25T16:05:48.576Z,3.25
2022-07-25T16:08:14.958Z,2.80
2022-07-25T16:10:41.741Z,2.80
2022-07-25T16:13:08.158Z,2.60
2022-07-25T16:15:34.935Z,2.90
2022-07-25T16:18:02.971Z,2.72
2022-07-25T16:20:31.279Z,2.47
2022-07-25T16:22:59.060Z,2.63
2022-07-25T16:25:25.866Z,2.90
2022-07-25T16:27:52.605Z,3.00
2022-07-25T16:30:19.084Z,2.47
2022-07-25T16:32:46.130Z,2.55
2022-07-25T16:35:12.866Z,2.75
2022-07-25T16:37:40.171Z,3.15
2022-07-25T16:40:08.095Z,3.03
2022-07-25T16:42:34.872Z,3.05
2022-07-25T16:45:01.259Z,3.22
2022-07-25T16:47:27.594Z,3.00
2022-07-25T16:49:53.941Z,3.90
2022-07-25T16:52:20.307Z,3.00
2022-07-25T16:54:46.652Z,3.42
2022-07-25T16:57:13.017Z,3.88
2022-07-25T16:59:39.359Z,3.50
2022-07-25T17:02:06.184Z,3.70
2022-07-25T17:04:33.529Z,3.70
2022-07-25T17:07:00.067Z,3.72
2022-07-25T17:09:26.409Z,4.00
2022-07-25T17:11:52.803Z,3.70
2022-07-25T17:14:19.194Z,4.25
2022-07-25T17:16:45.853Z,4.65
2022-07-25T17:19:13.519Z,4.43
2022-07-25T17:21:40.100Z,4.40
2022-07-25T17:24:06.716Z,4.50
2022-07-25T17:26:33.102Z,4.85
2022-07-25T17:28:59.634Z,4.90
2022-07-25T17:31:26.912Z,4.47
2022-07-25T17:33:53.297Z,5.05
2022-07-25T17:36:19.662Z,5.53
2022-07-25T17:38:46.071Z,4.93
2022-07-25T17:41:12.605Z,5.20
2022-07-25T17:43:39.098Z,6.03
2022-07-25T17:46:05.550Z,5.10
2022-07-25T17:48:32.045Z,5.03
2022-07-25T17:50:58.425Z,5.32
2022-07-25T17:53:24.800Z,5.47
2022-07-25T17:55:51.280Z,4.65
2022-07-25T17:58:17.614Z,5.43
2022-07-25T18:00:43.988Z,5.78
2022-07-25T18:03:10.384Z,4.82
2022-07-25T18:05:36.983Z,4.88
2022-07-25T18:08:03.412Z,5.13
2022-07-25T18:10:29.948Z,5.22
2022-07-25T18:12:56.285Z,4.70
2022-07-25T18:15:22.640Z,5.68
2022-07-25T18:17:49.052Z,5.82
2022-07-25T18:20:16.162Z,4.65
2022-07-25T18:22:43.073Z,5.28
2022-07-25T18:25:11.178Z,5.20
2022-07-25T18:27:37.965Z,4.90
2022-07-25T18:30:07.761Z,5.78
2022-07-25T18:32:34.789Z,5.95
2022-07-25T18:35:01.321Z,5.75
2022-07-25T18:37:28.094Z,5.80
2022-07-25T18:39:54.611Z,5.63
2022-07-25T18:42:22.270Z,5.80
2022-07-25T18:44:50.253Z,5.63
2022-07-25T18:47:16.693Z,5.47
2022-07-25T18:49:44.261Z,6.30
2022-07-25T18:52:10.594Z,5.53
2022-07-25T18:54:36.923Z,5.90
2022-07-25T18:57:04.542Z,6.13
2022-07-25T18:59:30.897Z,5.10
2022-07-25T19:01:57.292Z,5.82
2022-07-25T19:04:23.734Z,6.05
2022-07-25T19:06:50.086Z,5.60
2022-07-25T19:09:16.561Z,6.20
2022-07-25T19:11:42.909Z,5.80
2022-07-25T19:14:09.905Z,6.25
2022-07-25T19:16:36.683Z,5.93
2022-07-25T19:19:03.494Z,7.22
2022-07-25T19:21:29.862Z,6.25
2022-07-25T19:23:56.205Z,6.25
2022-07-25T19:26:22.654Z,6.88
2022-07-25T19:28:50.161Z,6.50
2022-07-25T19:31:16.775Z,5.88
2022-07-25T19:33:45.483Z,6.68
2022-07-25T19:36:12.287Z,5.97
2022-07-25T19:38:38.686Z,6.28
2022-07-25T19:41:05.100Z,6.13
2022-07-25T19:43:31.479Z,6.57
2022-07-25T19:45:57.892Z,6.57
2022-07-25T19:48:24.377Z,6.07
2022-07-25T19:50:51.487Z,6.40
2022-07-25T19:53:17.887Z,6.40
2022-07-25T19:55:44.427Z,7.13
2022-07-25T19:58:10.824Z,6.25
2022-07-25T20:00:37.467Z,6.55
2022-07-25T20:03:06.778Z,6.97
2022-07-25T20:05:33.214Z,6.88
2022-07-25T20:07:59.606Z,6.28
2022-07-25T20:10:26.008Z,6.85
2022-07-25T20:12:52.369Z,6.53
2022-07-25T20:15:18.757Z,6.50
2022-07-25T20:17:45.175Z,7.03
2022-07-25T20:20:11.633Z,6.97
2022-07-25T20:22:38.069Z,6.43
2022-07-25T20:25:05.121Z,6.90
2022-07-25T20:27:31.508Z,6.70
2022-07-25T20:29:57.994Z,6.07
2022-07-25T20:32:24.393Z,6.25
2022-07-25T20:34:52.491Z,6.47
2022-07-25T20:37:18.924Z,5.93
2022-07-25T20:39:45.288Z,5.80
2022-07-25T20:42:14.609Z,6.93
2022-07-25T20:44:41.071Z,7.20
2022-07-25T20:47:07.508Z,7.63
2022-07-25T20:49:33.895Z,6.68
2022-07-25T20:52:00.302Z,7.32
2022-07-25T20:54:26.647Z,7.75
2022-07-25T20:56:53.106Z,7.65
2022-07-25T20:59:19.549Z,7.57
2022-07-25T21:01:46.076Z,7.50
2022-07-25T21:04:12.567Z,6.68
2022-07-25T21:06:38.919Z,6.20
2022-07-25T21:09:05.830Z,5.53
2022-07-25T21:11:32.681Z,5.88
2022-07-25T21:13:59.150Z,6.32
2022-07-25T21:16:27.235Z,6.30
2022-07-25T21:18:55.927Z,7.03
2022-07-25T21:21:22.501Z,7.20
2022-07-25T21:23:49.060Z,7.20
2022-07-25T21:26:16.116Z,7.93
2022-07-25T21:28:43.573Z,6.82
2022-07-25T21:31:10.656Z,6.55
2022-07-25T21:33:36.987Z,7.10
2022-07-25T21:36:03.635Z,5.78
2022-07-25T21:38:33.410Z,6.57
2022-07-25T21:41:01.412Z,7.13
2022-07-25T21:43:27.798Z,7.43
2022-07-25T21:45:54.392Z,6.88
2022-07-25T21:48:42.855Z,9.10
2022-07-25T21:51:09.789Z,9.05
2022-07-25T21:53:45.620Z,8.57
2022-07-25T21:56:11.978Z,9.30
2022-07-25T21:58:38.384Z,9.35
2022-07-25T22:01:04.861Z,8.00
2022-07-25T22:03:31.306Z,7.68
2022-07-25T22:05:57.692Z,9.07
2022-07-25T22:08:24.077Z,9.68
2022-07-25T22:10:50.555Z,9.98
2022-07-25T22:13:16.907Z,10.15
2022-07-25T22:15:44.316Z,10.60
2022-07-25T22:18:10.809Z,10.02
2022-07-25T22:20:37.303Z,10.25
2022-07-25T22:23:03.955Z,8.65
2022-07-25T22:25:30.314Z,10.98
2022-07-25T22:27:56.675Z,8.18
2022-07-25T22:30:23.141Z,10.10
2022-07-25T22:32:49.518Z,8.05
2022-07-25T22:35:16.193Z,9.63
2022-07-25T22:37:43.076Z,8.43
2022-07-25T22:40:09.765Z,9.55
2022-07-25T22:42:36.477Z,11.18
2022-07-25T22:45:03.153Z,9.95
2022-07-25T22:47:29.485Z,9.50
2022-07-25T22:49:55.858Z,11.63
2022-07-25T22:52:22.269Z,10.55
2022-07-25T22:54:48.633Z,8.57
2022-07-25T22:57:15.010Z,9.48
2022-07-25T22:59:41.810Z,9.10
2022-07-25T23:02:08.261Z,9.73
2022-07-25T23:04:34.752Z,12.00
2022-07-25T23:07:01.147Z,12.98
2022-07-25T23:09:35.995Z,13.25
2022-07-25T23:12:03.816Z,10.32
2022-07-25T23:14:30.172Z,11.45
2022-07-25T23:17:14.959Z,9.75
2022-07-25T23:19:41.324Z,8.75
2022-07-25T23:22:07.708Z,9.30
2022-07-25T23:24:37.591Z,7.78
2022-07-25T23:27:04.537Z,8.70
2022-07-25T23:29:30.897Z,10.20
2022-07-25T23:31:57.289Z,11.32
2022-07-25T23:34:23.691Z,11.40
2022-07-25T23:36:50.061Z,13.75
2022-07-25T23:39:16.433Z,11.15
2022-07-25T23:41:42.901Z,9.20
2022-07-25T23:44:09.302Z,9.18
2022-07-25T23:46:38.689Z,10.88
2022-07-25T23:49:06.331Z,11.88
2022-07-25T23:51:33.235Z,9.48
2022-07-25T23:53:59.576Z,8.43
2022-07-25T23:56:25.946Z,8.07
2022-07-25T23:58:52.501Z,8.93
